Warning: Javascript must be enabled to use all the features on this page!


Page Loading - Please Wait...

Click to hideNews Bulletins

Peak Streamflow for the Nation

USGS 04216418 TONAWANDA CREEK AT ATTICA NY

Wyoming County, New York
Hydrologic Unit Code 04120104
Latitude  42°51'52.9", Longitude  78°17'00.3" NAD83
Drainage area 76.9  square miles
Contributing drainage area 76.9  square miles
Gage datum 954.10 feet above NAVD88
Output formats
Table
Graph
Tab-separated file
peakfq (watstore) format
Reselect output format
Water
Year
Date Gage
Height
(feet)
Stream-
flow
(cfs)
1972 1972-06-23 12.005 6,0002,7,9
1978 1978-04-05 8.82 4,500
1979 1979-09-14 9.102 4,510
1980 1980-03-21 7.07 2,460
1981 1980-10-25 7.60 3,020
1982 1982-03-13 6.702 2,090
1983 1982-11-04 5.97 1,430
1984 1984-06-18 7.40 2,800
1985 1984-12-29 9.25 4,700
1986 1985-11-05 8.01 3,290
1987 1987-04-05 7.32 2,610
1988 1988-03-26 6.89 2,200
1989 1989-06-20 8.21 3,520
1990 1990-04-10 7.322 2,610
1991 1990-12-30 7.90 3,190
1992 1992-09-19 7.78 3,070
1993 1993-01-05 6.75 2,080
1994 1994-04-13 6.92 2,230
1995 1995-01-20 7.36 2,650
1996 1996-01-19 7.86 3,150
1997 1997-02-27 7.52 2,810
1998 1998-07-08 12.71 9,400
1999 1999-01-24 7.702 2,990
2000 2000-09-23 8.78 4,150
2001 2001-04-08 8.14 3,450
2002 2002-02-01 7.21 2,500
2003 2003-03-21 6.87 2,190
2004 2004-09-09 8.00 3,300
2005 2005-06-10 8.71 4,070
2006 2006-03-13 7.15 2,450
2007 2007-03-15 8.42 3,750
2008 2007-12-23 8.17 3,480
2009 2009-03-08 8.98 4,380
2010 2010-03-12 6.762 2,090
2011 2010-12-01 7.26 2,550
2012 2012-02-01 6.16 1,580
2013 2013-06-06 7.74 3,030
2014 2013-12-22 8.04 3,710
2015 2015-04-03 7.11 2,700
2016 2016-02-03 6.49 2,090
2017 2017-07-13 9.60 5,630
2018 2017-11-06 9.63 5,670
2019 2018-11-02 6.96 2,540
2020 2020-03-03 7.01 2,590
?
  Peak Gage-Height Qualification Codes.
?
  Peak Streamflow Qualification Codes.